Navajo Wingate Village, New Mexico
Current Conditions -  °F | °C
As of 2:53 PM on Monday 26 Jan 2015 (Local Time) from KGUP Reporting Station
Clear Clear  
Wind Chill: 57°   Ceiling: Unl
Heat Index: 57°   Visibility: 10mi
Dew Point: 27°   Wind: 6mph
Humidity: 32%   Direction: 330°NNW
Pressure: 30.3"   Gusts: NA
Location:  35.5324°N, 108.6°W
Report Text: KGUP 262153Z AUTO 33005KT 10SM CLR 14/M03 A3030 RMK AO2 SLP232 T01391028
Loading
Personal Weather Stations






























Interactive Weather Map New forecast layout! Learn more

10-Day Weather Forecast

Advertisements
Track Severe Weather on mobile